createdAt,value
2018-12-14T00:00:26.843Z,63.25
2018-12-14T00:00:57.960Z,63.59
2018-12-14T00:01:29.068Z,63.51
2018-12-14T00:02:00.575Z,63.03
2018-12-14T00:02:31.697Z,63.11
2018-12-14T00:03:02.812Z,63.05
2018-12-14T00:03:33.966Z,63.13
2018-12-14T00:04:05.072Z,62.86
2018-12-14T00:04:36.183Z,62.82
2018-12-14T00:05:07.292Z,62.55
2018-12-14T00:05:38.436Z,62.70
2018-12-14T00:06:09.545Z,62.81
2018-12-14T00:06:40.687Z,62.66
2018-12-14T00:07:11.819Z,62.73
2018-12-14T00:07:42.919Z,62.90
2018-12-14T00:08:14.033Z,62.33
2018-12-14T00:08:45.176Z,62.35
2018-12-14T00:09:16.292Z,62.62
2018-12-14T00:09:47.421Z,62.64
2018-12-14T00:10:18.534Z,62.33
2018-12-14T00:10:49.651Z,62.45
2018-12-14T00:11:20.763Z,62.87
2018-12-14T00:11:51.870Z,62.46
2018-12-14T00:12:23.026Z,62.71
2018-12-14T00:12:54.126Z,62.60
2018-12-14T00:13:25.237Z,62.65
2018-12-14T00:13:56.348Z,62.87
2018-12-14T00:14:27.466Z,62.66
2018-12-14T00:14:58.569Z,63.25
2018-12-14T00:15:29.685Z,63.42
2018-12-14T00:16:00.800Z,64.17
2018-12-14T00:16:31.941Z,65.46
2018-12-14T00:17:03.066Z,64.66
2018-12-14T00:17:34.212Z,63.45
2018-12-14T00:18:05.539Z,63.20
2018-12-14T00:18:36.701Z,62.38
2018-12-14T00:19:07.823Z,62.54
2018-12-14T00:19:38.951Z,62.01
2018-12-14T00:20:10.060Z,62.13
2018-12-14T00:20:41.185Z,61.93
2018-12-14T00:21:12.297Z,61.67
2018-12-14T00:21:43.404Z,61.94
2018-12-14T00:22:14.530Z,62.47
2018-12-14T00:22:45.698Z,62.63
2018-12-14T00:23:16.829Z,62.67
2018-12-14T00:23:47.933Z,62.60
2018-12-14T00:24:19.039Z,62.99
2018-12-14T00:24:50.157Z,62.82
2018-12-14T00:25:21.276Z,63.39
2018-12-14T00:25:52.378Z,63.83
2018-12-14T00:26:23.496Z,64.58
2018-12-14T00:26:54.661Z,65.49
2018-12-14T00:27:26.050Z,64.40
2018-12-14T00:27:57.207Z,63.54
2018-12-14T00:28:28.326Z,63.11
2018-12-14T00:28:59.453Z,63.07
2018-12-14T00:29:30.564Z,63.01
2018-12-14T00:30:01.678Z,63.39
2018-12-14T00:30:32.804Z,63.81
2018-12-14T00:31:03.912Z,63.37
2018-12-14T00:31:35.016Z,64.01
2018-12-14T00:32:06.141Z,64.24
2018-12-14T00:32:37.253Z,64.67
2018-12-14T00:33:08.404Z,65.19
2018-12-14T00:33:39.519Z,64.84
2018-12-14T00:34:10.896Z,64.64
2018-12-14T00:34:41.987Z,64.21
2018-12-14T00:35:13.104Z,63.71
2018-12-14T00:35:44.227Z,63.48
2018-12-14T00:36:15.620Z,63.87
2018-12-14T00:36:46.729Z,63.49
2018-12-14T00:37:17.849Z,63.15
2018-12-14T00:37:48.965Z,62.95
2018-12-14T00:38:20.120Z,63.59
2018-12-14T00:38:51.242Z,63.85
2018-12-14T00:39:22.348Z,63.56
2018-12-14T00:39:53.501Z,64.07
2018-12-14T00:40:24.642Z,64.34
2018-12-14T00:40:55.792Z,65.55
2018-12-14T00:41:26.897Z,65.43
2018-12-14T00:41:58.013Z,64.99
2018-12-14T00:42:29.121Z,64.58
2018-12-14T00:43:00.233Z,63.89
2018-12-14T00:43:31.336Z,63.80
2018-12-14T00:44:02.449Z,64.29
2018-12-14T00:44:33.563Z,64.36
2018-12-14T00:45:04.668Z,64.31
2018-12-14T00:45:35.817Z,64.54
2018-12-14T00:46:06.928Z,64.00
2018-12-14T00:46:38.112Z,63.93
2018-12-14T00:47:09.349Z,63.63
2018-12-14T00:47:40.516Z,63.69
2018-12-14T00:48:11.749Z,64.12
2018-12-14T00:48:42.862Z,63.78
2018-12-14T00:49:13.989Z,64.43
2018-12-14T00:49:45.104Z,64.59
2018-12-14T00:50:16.351Z,64.47
2018-12-14T00:50:47.497Z,64.78
2018-12-14T00:51:18.620Z,64.81
2018-12-14T00:51:49.772Z,64.68
2018-12-14T00:52:20.885Z,64.80
2018-12-14T00:52:52.007Z,64.67
2018-12-14T00:53:23.141Z,64.57
2018-12-14T00:53:55.178Z,64.66
2018-12-14T00:54:26.296Z,64.09
2018-12-14T00:54:57.453Z,64.37
2018-12-14T00:55:28.556Z,64.27
2018-12-14T00:55:59.719Z,64.72
2018-12-14T00:56:30.831Z,64.74
2018-12-14T00:57:01.948Z,65.27
2018-12-14T00:57:33.096Z,64.66
2018-12-14T00:58:04.218Z,64.55
2018-12-14T00:58:35.326Z,64.70
2018-12-14T00:59:06.455Z,64.74
2018-12-14T00:59:37.654Z,64.68
2018-12-14T01:00:08.766Z,63.76
2018-12-14T01:00:39.876Z,64.02
2018-12-14T01:01:11.009Z,63.81
2018-12-14T01:01:42.122Z,64.16
2018-12-14T01:02:13.346Z,64.31
2018-12-14T01:02:44.462Z,64.41
2018-12-14T01:03:15.565Z,64.84
2018-12-14T01:03:46.723Z,64.71
2018-12-14T01:04:17.832Z,64.54
2018-12-14T01:04:48.990Z,64.68
2018-12-14T01:05:20.105Z,64.74
2018-12-14T01:05:51.222Z,64.90
2018-12-14T01:06:22.333Z,65.17
2018-12-14T01:06:53.471Z,64.64
2018-12-14T01:07:24.641Z,64.68
2018-12-14T01:07:55.770Z,64.62
2018-12-14T01:08:26.883Z,64.33
2018-12-14T01:08:58.051Z,64.98
2018-12-14T01:09:29.173Z,65.11
2018-12-14T01:10:00.327Z,64.99
2018-12-14T01:10:31.532Z,65.24
2018-12-14T01:11:02.649Z,65.39
2018-12-14T01:11:33.773Z,65.25
2018-12-14T01:12:04.889Z,65.24
2018-12-14T01:12:36.004Z,65.36
2018-12-14T01:13:07.113Z,64.99
2018-12-14T01:13:38.269Z,65.48
2018-12-14T01:14:09.394Z,65.26
2018-12-14T01:14:40.554Z,65.61
2018-12-14T01:15:11.667Z,65.91
2018-12-14T01:15:42.886Z,66.06
2018-12-14T01:16:14.010Z,65.61
2018-12-14T01:16:45.134Z,65.66
2018-12-14T01:17:16.289Z,65.55
2018-12-14T01:17:49.202Z,66.25
2018-12-14T01:18:20.337Z,66.02
2018-12-14T01:18:51.477Z,66.10
2018-12-14T01:19:22.596Z,66.29
2018-12-14T01:19:53.757Z,65.92
2018-12-14T01:20:24.872Z,66.46
2018-12-14T01:20:56.007Z,66.32
2018-12-14T01:21:27.545Z,66.40
2018-12-14T01:21:58.690Z,66.43
2018-12-14T01:22:29.818Z,66.53
2018-12-14T01:23:00.933Z,66.81
2018-12-14T01:23:32.031Z,67.07
2018-12-14T01:24:03.137Z,67.20
2018-12-14T01:24:34.274Z,67.41
2018-12-14T01:25:05.400Z,67.58
2018-12-14T01:25:36.521Z,67.64
2018-12-14T01:26:07.650Z,67.66
2018-12-14T01:26:38.778Z,68.24
2018-12-14T01:27:09.934Z,67.77
2018-12-14T01:27:41.060Z,67.83
2018-12-14T01:28:12.219Z,67.83
2018-12-14T01:28:43.371Z,68.24
2018-12-14T01:29:14.509Z,68.42
2018-12-14T01:29:45.634Z,68.78
2018-12-14T01:30:16.749Z,68.77
2018-12-14T01:30:47.870Z,68.77
2018-12-14T01:31:18.980Z,68.72
2018-12-14T01:31:50.087Z,69.00
2018-12-14T01:32:21.194Z,69.22
2018-12-14T01:32:52.315Z,69.20
2018-12-14T01:33:23.485Z,69.14
2018-12-14T01:33:54.601Z,69.19
2018-12-14T01:34:25.756Z,69.03
2018-12-14T01:34:56.887Z,68.96
2018-12-14T01:35:28.009Z,68.96
2018-12-14T01:35:59.160Z,68.62
2018-12-14T01:36:30.324Z,68.71
2018-12-14T01:37:01.460Z,68.62
2018-12-14T01:37:32.581Z,68.66
2018-12-14T01:38:03.683Z,68.56
2018-12-14T01:38:34.793Z,68.56
2018-12-14T01:39:05.904Z,68.35
2018-12-14T01:39:37.007Z,68.32
2018-12-14T01:40:08.198Z,68.08
2018-12-14T01:40:39.444Z,68.03
2018-12-14T01:41:10.561Z,68.26
2018-12-14T01:41:41.682Z,68.08
2018-12-14T01:42:12.792Z,67.88
2018-12-14T01:42:43.906Z,67.97
2018-12-14T01:43:15.021Z,67.76
2018-12-14T01:43:46.124Z,67.35
2018-12-14T01:44:17.238Z,67.50
2018-12-14T01:44:48.344Z,67.25
2018-12-14T01:45:19.483Z,67.18
2018-12-14T01:45:50.616Z,67.29
2018-12-14T01:46:21.832Z,67.30
2018-12-14T01:46:52.941Z,67.36
2018-12-14T01:47:24.047Z,67.59
2018-12-14T01:47:55.203Z,67.66
2018-12-14T01:48:26.307Z,67.88
2018-12-14T01:48:57.412Z,67.61
2018-12-14T01:49:28.516Z,67.48
2018-12-14T01:49:59.624Z,67.62
2018-12-14T01:50:30.736Z,67.54
2018-12-14T01:51:01.896Z,67.41
2018-12-14T01:51:33.535Z,67.34
2018-12-14T01:52:04.630Z,67.57
2018-12-14T01:52:35.744Z,67.61
2018-12-14T01:53:06.845Z,67.54
2018-12-14T01:53:37.959Z,67.56
2018-12-14T01:54:09.075Z,67.58
2018-12-14T01:54:40.183Z,67.65
2018-12-14T01:55:11.289Z,67.59
2018-12-14T01:55:42.457Z,67.86
2018-12-14T01:56:13.567Z,67.90
2018-12-14T01:56:44.684Z,68.18
2018-12-14T01:57:15.788Z,68.23
2018-12-14T01:57:46.897Z,68.19
2018-12-14T01:58:18.006Z,68.32
2018-12-14T01:58:49.111Z,68.69
2018-12-14T01:59:20.222Z,69.42
2018-12-14T01:59:51.329Z,69.75
2018-12-14T02:00:22.437Z,70.25
2018-12-14T02:00:53.920Z,70.67
2018-12-14T02:01:25.049Z,71.23
2018-12-14T02:01:56.173Z,71.39
2018-12-14T02:02:27.278Z,71.53
2018-12-14T02:02:58.384Z,71.75
2018-12-14T02:03:29.485Z,72.00
2018-12-14T02:04:00.755Z,72.18
2018-12-14T02:04:31.898Z,72.01
2018-12-14T02:05:03.021Z,72.12
2018-12-14T02:05:34.133Z,72.02
2018-12-14T02:06:05.293Z,71.97
2018-12-14T02:06:36.443Z,72.31
2018-12-14T02:07:07.549Z,72.32
2018-12-14T02:07:38.655Z,72.59
2018-12-14T02:08:09.770Z,72.98
2018-12-14T02:08:40.920Z,73.27
2018-12-14T02:09:12.042Z,73.53
2018-12-14T02:09:43.153Z,73.68
2018-12-14T02:10:14.269Z,73.61
2018-12-14T02:10:45.372Z,73.57
2018-12-14T02:11:16.523Z,73.49
2018-12-14T02:11:47.628Z,73.19
2018-12-14T02:12:18.745Z,73.24
2018-12-14T02:12:49.848Z,73.49
2018-12-14T02:13:21.021Z,73.20
2018-12-14T02:13:52.127Z,73.34
2018-12-14T02:14:23.252Z,73.35
2018-12-14T02:14:54.353Z,73.27
2018-12-14T02:15:25.464Z,73.12
2018-12-14T02:15:56.581Z,73.04
2018-12-14T02:16:27.680Z,72.87
2018-12-14T02:16:58.839Z,73.15
2018-12-14T02:17:29.953Z,73.03
2018-12-14T02:18:01.067Z,72.86
2018-12-14T02:18:32.174Z,72.64
2018-12-14T02:19:03.280Z,72.57
2018-12-14T02:19:34.382Z,72.61
2018-12-14T02:20:05.480Z,72.51
2018-12-14T02:20:36.635Z,72.55
2018-12-14T02:21:07.737Z,72.27
2018-12-14T02:21:39.064Z,72.18
2018-12-14T02:22:10.207Z,71.88
2018-12-14T02:22:41.313Z,71.87
2018-12-14T02:23:12.427Z,71.70
2018-12-14T02:23:43.532Z,71.51
2018-12-14T02:24:14.636Z,71.37
2018-12-14T02:24:45.745Z,71.43
2018-12-14T02:25:16.850Z,71.44
2018-12-14T02:25:47.985Z,71.15
2018-12-14T02:26:19.127Z,71.37
2018-12-14T02:26:50.248Z,71.14
2018-12-14T02:27:21.360Z,71.12
2018-12-14T02:27:52.462Z,71.08
2018-12-14T02:28:23.597Z,71.02
2018-12-14T02:28:54.696Z,70.82
2018-12-14T02:29:25.814Z,70.67
2018-12-14T02:29:56.918Z,70.90
2018-12-14T02:30:28.061Z,70.79
2018-12-14T02:30:59.172Z,70.65
2018-12-14T02:31:30.277Z,70.60
2018-12-14T02:32:01.380Z,70.24
2018-12-14T02:32:32.530Z,70.55
2018-12-14T02:33:03.645Z,70.58
2018-12-14T02:33:34.764Z,70.60
2018-12-14T02:34:05.887Z,70.76
2018-12-14T02:34:36.991Z,71.22
2018-12-14T02:35:08.117Z,71.39
2018-12-14T02:35:39.251Z,71.16
2018-12-14T02:36:10.368Z,71.33
2018-12-14T02:36:41.481Z,71.09
2018-12-14T02:37:12.599Z,71.08
2018-12-14T02:37:43.717Z,71.15
2018-12-14T02:38:14.826Z,71.15
2018-12-14T02:38:45.938Z,71.08
2018-12-14T02:39:17.054Z,71.18
2018-12-14T02:39:48.165Z,71.21
2018-12-14T02:40:19.400Z,71.03
2018-12-14T02:40:50.544Z,70.90
2018-12-14T02:41:21.665Z,70.70
2018-12-14T02:41:52.783Z,70.55
2018-12-14T02:42:23.885Z,70.36
2018-12-14T02:42:54.994Z,70.08
2018-12-14T02:43:26.117Z,69.62
2018-12-14T02:43:57.261Z,69.29
2018-12-14T02:44:29.384Z,69.39
2018-12-14T02:45:00.505Z,69.74
2018-12-14T02:45:31.608Z,69.42
2018-12-14T02:46:02.712Z,69.43
2018-12-14T02:46:33.867Z,69.69
2018-12-14T02:47:04.978Z,69.75
2018-12-14T02:47:36.101Z,69.42
2018-12-14T02:48:07.213Z,68.71
2018-12-14T02:48:38.369Z,68.77
2018-12-14T02:49:09.492Z,69.33
2018-12-14T02:49:40.591Z,69.64
2018-12-14T02:50:11.707Z,69.86
2018-12-14T02:50:42.857Z,69.92
2018-12-14T02:51:14.026Z,69.87
2018-12-14T02:51:45.149Z,69.84
2018-12-14T02:52:16.270Z,69.91
2018-12-14T02:52:47.389Z,69.73
2018-12-14T02:53:18.502Z,69.69
2018-12-14T02:53:49.612Z,69.51
2018-12-14T02:54:20.805Z,69.16
2018-12-14T02:54:51.921Z,69.14
2018-12-14T02:55:23.060Z,69.18
2018-12-14T02:55:54.176Z,69.34
2018-12-14T02:56:25.354Z,68.70
2018-12-14T02:56:56.476Z,68.53
2018-12-14T02:57:27.579Z,68.63
2018-12-14T02:57:58.696Z,68.63
2018-12-14T02:58:29.807Z,68.81
2018-12-14T02:59:00.934Z,68.84
2018-12-14T02:59:32.090Z,69.12
2018-12-14T03:00:03.236Z,69.47
2018-12-14T03:00:35.024Z,69.49
2018-12-14T03:01:06.138Z,69.69
2018-12-14T03:01:37.260Z,69.36
2018-12-14T03:02:08.364Z,69.36
2018-12-14T03:02:39.513Z,69.30
2018-12-14T03:03:10.624Z,69.21
2018-12-14T03:03:41.730Z,69.25
2018-12-14T03:04:12.853Z,69.10
2018-12-14T03:04:43.995Z,69.03
2018-12-14T03:05:15.119Z,69.40
2018-12-14T03:05:46.273Z,69.31
2018-12-14T03:06:17.409Z,69.36
2018-12-14T03:06:48.649Z,69.70
2018-12-14T03:07:19.762Z,70.03
2018-12-14T03:07:50.866Z,70.24
2018-12-14T03:08:21.977Z,70.29
2018-12-14T03:08:53.098Z,70.23
2018-12-14T03:09:24.277Z,70.25
2018-12-14T03:09:55.421Z,70.16
2018-12-14T03:10:26.631Z,70.32
2018-12-14T03:10:57.761Z,70.30
2018-12-14T03:11:28.880Z,70.13
2018-12-14T03:12:00.000Z,70.15
2018-12-14T03:12:31.128Z,69.96
2018-12-14T03:13:02.252Z,69.75
2018-12-14T03:13:33.393Z,69.66
2018-12-14T03:14:04.561Z,69.56
2018-12-14T03:14:35.667Z,69.50
2018-12-14T03:15:06.777Z,68.96
2018-12-14T03:15:37.884Z,68.48
2018-12-14T03:16:08.996Z,68.46
2018-12-14T03:16:40.110Z,68.49
2018-12-14T03:17:11.226Z,67.96
2018-12-14T03:17:42.348Z,67.67
2018-12-14T03:18:13.457Z,67.73
2018-12-14T03:18:44.566Z,67.80
2018-12-14T03:19:15.742Z,67.94
2018-12-14T03:19:46.853Z,67.71
2018-12-14T03:20:17.975Z,67.81
2018-12-14T03:20:49.204Z,67.53
2018-12-14T03:21:20.389Z,67.86
2018-12-14T03:21:51.519Z,68.04
2018-12-14T03:22:22.629Z,68.00
2018-12-14T03:22:53.740Z,67.92
2018-12-14T03:23:24.836Z,67.76
2018-12-14T03:23:56.006Z,67.75
2018-12-14T03:24:27.116Z,67.60
2018-12-14T03:24:58.224Z,67.38
2018-12-14T03:25:29.344Z,67.42
2018-12-14T03:26:00.445Z,67.32
2018-12-14T03:26:31.925Z,67.42
2018-12-14T03:27:07.098Z,67.28
2018-12-14T03:27:38.347Z,67.36
2018-12-14T03:28:09.479Z,67.35
2018-12-14T03:28:46.557Z,67.30
2018-12-14T03:29:17.679Z,67.43
2018-12-14T03:29:48.790Z,67.19
2018-12-14T03:30:19.935Z,67.13
2018-12-14T03:30:51.045Z,67.24
2018-12-14T03:31:22.186Z,67.40
2018-12-14T03:31:53.340Z,67.15
2018-12-14T03:32:24.576Z,67.50
2018-12-14T03:32:55.799Z,67.41
2018-12-14T03:33:26.922Z,67.40
2018-12-14T03:33:58.026Z,67.51
2018-12-14T03:34:29.151Z,67.57
2018-12-14T03:35:00.278Z,67.85
2018-12-14T03:35:31.512Z,68.00
2018-12-14T03:36:02.673Z,68.05
2018-12-14T03:36:33.917Z,68.15
2018-12-14T03:37:05.033Z,67.89
2018-12-14T03:37:36.147Z,68.02
2018-12-14T03:38:07.252Z,67.79
2018-12-14T03:38:38.352Z,67.33
2018-12-14T03:39:09.497Z,67.97
2018-12-14T03:39:40.609Z,67.84
2018-12-14T03:40:11.712Z,67.73
2018-12-14T03:40:42.824Z,67.62
2018-12-14T03:41:13.975Z,66.97
2018-12-14T03:41:45.077Z,66.50
2018-12-14T03:42:16.228Z,66.54
2018-12-14T03:42:47.341Z,66.32
2018-12-14T03:43:18.520Z,65.96
2018-12-14T03:43:49.641Z,65.96
2018-12-14T03:44:20.755Z,66.06
2018-12-14T03:44:51.889Z,66.19
2018-12-14T03:45:23.000Z,66.07
2018-12-14T03:45:54.117Z,65.98
2018-12-14T03:46:25.234Z,65.81
2018-12-14T03:46:56.341Z,65.79
2018-12-14T03:47:27.447Z,65.93
2018-12-14T03:47:58.598Z,66.00
2018-12-14T03:48:29.707Z,66.37
2018-12-14T03:49:00.805Z,66.46
2018-12-14T03:49:31.914Z,66.43
2018-12-14T03:50:03.025Z,66.43
2018-12-14T03:50:34.128Z,66.58
2018-12-14T03:51:05.240Z,66.88
2018-12-14T03:51:36.355Z,67.00
2018-12-14T03:52:07.818Z,66.90
2018-12-14T03:52:38.992Z,67.02
2018-12-14T03:53:10.146Z,66.94
2018-12-14T03:53:41.284Z,66.97
2018-12-14T03:54:12.397Z,67.00
2018-12-14T03:54:43.511Z,67.19
2018-12-14T03:55:14.635Z,67.26
2018-12-14T03:55:45.738Z,67.35
2018-12-14T03:56:16.848Z,67.25
2018-12-14T03:56:47.952Z,66.71
2018-12-14T03:57:19.068Z,67.05
2018-12-14T03:57:50.183Z,67.16
2018-12-14T03:58:21.330Z,67.28
2018-12-14T03:58:52.440Z,67.09
2018-12-14T03:59:23.556Z,67.20
2018-12-14T03:59:54.659Z,67.28
2018-12-14T04:00:25.818Z,67.26
2018-12-14T04:00:56.940Z,67.01
2018-12-14T04:01:28.039Z,67.31
2018-12-14T04:01:59.149Z,67.42
2018-12-14T04:02:30.275Z,67.44
2018-12-14T04:03:01.395Z,67.67
2018-12-14T04:03:32.548Z,67.40
2018-12-14T04:04:03.662Z,67.96
2018-12-14T04:04:34.775Z,67.93
2018-12-14T04:05:05.903Z,68.01
2018-12-14T04:05:37.021Z,67.79
2018-12-14T04:06:08.141Z,67.55
2018-12-14T04:06:39.278Z,67.98
2018-12-14T04:07:10.398Z,67.68
2018-12-14T04:07:41.509Z,67.56
2018-12-14T04:08:12.617Z,67.31
2018-12-14T04:08:43.768Z,67.39
2018-12-14T04:09:14.890Z,67.53
2018-12-14T04:09:49.487Z,67.72
2018-12-14T04:10:20.631Z,67.58
2018-12-14T04:10:51.755Z,67.54
2018-12-14T04:11:22.984Z,67.47
2018-12-14T04:11:54.098Z,67.63
2018-12-14T04:12:25.216Z,67.89
2018-12-14T04:12:56.344Z,67.96
2018-12-14T04:13:27.456Z,67.72
2018-12-14T04:13:59.598Z,67.39
2018-12-14T04:14:30.703Z,67.44
2018-12-14T04:15:01.819Z,67.36
2018-12-14T04:15:32.935Z,67.65
2018-12-14T04:16:04.057Z,67.09
2018-12-14T04:16:35.216Z,67.15
2018-12-14T04:17:06.332Z,67.62
2018-12-14T04:17:37.451Z,67.72
2018-12-14T04:18:08.569Z,67.74
2018-12-14T04:18:39.685Z,67.94
2018-12-14T04:19:10.820Z,67.89
2018-12-14T04:19:41.955Z,68.21
2018-12-14T04:20:13.134Z,68.27
2018-12-14T04:20:44.253Z,68.42
2018-12-14T04:21:15.361Z,68.26
2018-12-14T04:21:46.487Z,68.09
2018-12-14T04:22:17.643Z,68.22
2018-12-14T04:22:48.759Z,68.30
2018-12-14T04:23:19.869Z,68.25
2018-12-14T04:23:50.994Z,68.45
2018-12-14T04:24:22.099Z,68.48
2018-12-14T04:24:54.503Z,68.74
2018-12-14T04:25:25.748Z,68.88
2018-12-14T04:25:56.917Z,69.08
2018-12-14T04:26:28.039Z,69.37
2018-12-14T04:26:59.160Z,69.58
2018-12-14T04:27:30.414Z,69.98
2018-12-14T04:28:01.545Z,70.45
2018-12-14T04:28:32.789Z,70.47
2018-12-14T04:29:03.901Z,70.53
2018-12-14T04:29:35.048Z,70.50
2018-12-14T04:30:06.194Z,70.76
2018-12-14T04:30:37.320Z,71.06
2018-12-14T04:31:08.443Z,71.35
2018-12-14T04:31:39.548Z,71.36
2018-12-14T04:32:10.660Z,71.39
2018-12-14T04:32:41.779Z,71.56
2018-12-14T04:33:12.965Z,71.66
2018-12-14T04:33:44.082Z,71.67
2018-12-14T04:34:15.191Z,71.58
2018-12-14T04:34:46.298Z,71.65
2018-12-14T04:35:17.411Z,71.72
2018-12-14T04:35:48.525Z,71.78
2018-12-14T04:36:19.644Z,72.26
2018-12-14T04:36:50.811Z,72.17
2018-12-14T04:37:21.926Z,72.34
2018-12-14T04:37:53.057Z,72.46
2018-12-14T04:38:24.180Z,72.47
2018-12-14T04:38:55.289Z,72.32
2018-12-14T04:39:26.502Z,72.33
2018-12-14T04:39:57.697Z,72.36
2018-12-14T04:41:07.504Z,71.76
2018-12-14T04:41:38.622Z,71.76
2018-12-14T04:42:09.728Z,71.95
2018-12-14T04:42:40.841Z,71.95
2018-12-14T04:43:11.947Z,72.09
2018-12-14T04:43:43.057Z,71.53
2018-12-14T04:44:14.200Z,70.64
2018-12-14T04:44:45.314Z,70.29
2018-12-14T04:45:16.449Z,70.77
2018-12-14T04:45:47.566Z,71.00
2018-12-14T04:46:18.669Z,71.17
2018-12-14T04:46:49.805Z,71.10
2018-12-14T04:47:20.917Z,70.76
2018-12-14T04:47:52.027Z,71.48
2018-12-14T04:48:23.135Z,71.67
2018-12-14T04:48:54.271Z,71.94
2018-12-14T04:49:26.318Z,71.70
2018-12-14T04:49:57.431Z,71.57
2018-12-14T04:50:28.534Z,71.41
2018-12-14T04:50:59.651Z,71.43
2018-12-14T04:51:30.784Z,71.64
2018-12-14T04:52:01.897Z,71.21
2018-12-14T04:52:33.003Z,71.11
2018-12-14T04:53:04.154Z,71.31
2018-12-14T04:53:35.269Z,70.39
2018-12-14T04:54:06.382Z,70.05
2018-12-14T04:54:37.497Z,70.10
2018-12-14T04:55:08.611Z,70.17
2018-12-14T04:55:39.757Z,70.33
2018-12-14T04:56:10.883Z,70.39
2018-12-14T04:56:42.009Z,70.41
2018-12-14T04:57:13.119Z,70.90
2018-12-14T04:57:44.258Z,71.17
2018-12-14T04:58:15.360Z,70.98
2018-12-14T04:58:46.473Z,71.04
2018-12-14T04:59:17.658Z,70.60
2018-12-14T04:59:48.828Z,70.42
2018-12-14T05:00:19.996Z,70.07
2018-12-14T05:00:51.106Z,69.91
2018-12-14T05:01:22.222Z,69.82
2018-12-14T05:01:53.343Z,69.74
2018-12-14T05:02:24.502Z,69.77
2018-12-14T05:02:55.622Z,69.87
2018-12-14T05:03:26.745Z,70.43
2018-12-14T05:03:57.848Z,69.98
2018-12-14T05:04:28.970Z,69.95
2018-12-14T05:05:00.126Z,69.92
2018-12-14T05:05:31.244Z,69.99
2018-12-14T05:06:02.362Z,70.35
2018-12-14T05:06:33.478Z,70.50
2018-12-14T05:07:04.607Z,70.29
2018-12-14T05:07:35.730Z,70.49
2018-12-14T05:08:06.844Z,70.20
2018-12-14T05:08:37.954Z,70.44
2018-12-14T05:09:09.078Z,70.62
2018-12-14T05:09:40.192Z,70.27
2018-12-14T05:10:11.379Z,70.36
2018-12-14T05:10:42.505Z,70.60
2018-12-14T05:11:13.615Z,70.71
2018-12-14T05:11:44.724Z,70.88
2018-12-14T05:12:15.838Z,71.08
2018-12-14T05:12:46.964Z,70.96
2018-12-14T05:13:18.084Z,71.27
2018-12-14T05:13:49.207Z,71.32
2018-12-14T05:14:20.320Z,71.09
2018-12-14T05:14:51.435Z,71.21
2018-12-14T05:15:22.595Z,70.87
2018-12-14T05:15:53.725Z,70.65
2018-12-14T05:16:24.866Z,70.33
2018-12-14T05:16:56.021Z,70.52
2018-12-14T05:17:27.172Z,70.44
2018-12-14T05:17:58.292Z,70.49
2018-12-14T05:18:29.395Z,70.34
2018-12-14T05:19:00.514Z,70.32
2018-12-14T05:19:31.643Z,70.07
2018-12-14T05:20:02.762Z,70.15
2018-12-14T05:20:33.864Z,70.20
2018-12-14T05:21:04.964Z,70.11
2018-12-14T05:21:36.077Z,70.16
2018-12-14T05:22:07.202Z,70.20
2018-12-14T05:22:38.371Z,70.19
2018-12-14T05:23:09.542Z,70.32
2018-12-14T05:23:40.642Z,70.49
2018-12-14T05:24:11.749Z,70.58
2018-12-14T05:24:42.868Z,70.45
2018-12-14T05:25:13.973Z,70.59
2018-12-14T05:25:45.085Z,70.53
2018-12-14T05:26:16.242Z,70.42
2018-12-14T05:26:47.406Z,70.50
2018-12-14T05:27:18.536Z,70.53
2018-12-14T05:27:49.646Z,70.76
2018-12-14T05:28:20.752Z,70.85
2018-12-14T05:28:51.852Z,71.00
2018-12-14T05:29:22.951Z,70.72
2018-12-14T05:29:54.073Z,71.14
2018-12-14T05:30:25.235Z,70.84
2018-12-14T05:30:56.367Z,70.81
2018-12-14T05:31:27.493Z,70.66
2018-12-14T05:31:58.626Z,70.32
2018-12-14T05:32:29.740Z,69.75
2018-12-14T05:33:00.861Z,69.75
2018-12-14T05:33:31.977Z,69.28
2018-12-14T05:34:03.139Z,69.11
2018-12-14T05:34:34.255Z,68.54
2018-12-14T05:35:05.374Z,69.12
2018-12-14T05:35:36.487Z,69.46
2018-12-14T05:36:07.609Z,69.32
2018-12-14T05:36:38.715Z,69.56
2018-12-14T05:37:09.820Z,69.60
2018-12-14T05:37:40.929Z,69.49
2018-12-14T05:38:12.032Z,69.66
2018-12-14T05:38:43.144Z,69.64
2018-12-14T05:39:14.289Z,69.94
2018-12-14T05:39:45.521Z,70.56
2018-12-14T05:40:16.630Z,70.46
2018-12-14T05:40:47.760Z,70.52
2018-12-14T05:41:18.876Z,70.45
2018-12-14T05:41:49.990Z,70.34
2018-12-14T05:42:21.097Z,70.55
2018-12-14T05:42:52.225Z,70.61
2018-12-14T05:43:23.332Z,70.60
2018-12-14T05:43:54.446Z,70.23
2018-12-14T05:44:25.599Z,70.63
2018-12-14T05:44:56.742Z,70.24
2018-12-14T05:45:27.861Z,70.26
2018-12-14T05:45:58.973Z,70.28
2018-12-14T05:46:30.089Z,70.13
2018-12-14T05:47:01.197Z,70.20
2018-12-14T05:47:32.348Z,69.62
2018-12-14T05:48:03.473Z,69.81
2018-12-14T05:48:34.597Z,69.63
2018-12-14T05:49:05.709Z,69.55
2018-12-14T05:49:36.825Z,69.12
2018-12-14T05:50:07.973Z,69.35
2018-12-14T05:50:39.084Z,69.02
2018-12-14T05:51:10.249Z,69.17
2018-12-14T05:51:41.353Z,68.71
2018-12-14T05:52:12.457Z,68.45
2018-12-14T05:52:43.568Z,68.54
2018-12-14T05:53:14.674Z,68.07
2018-12-14T05:53:45.791Z,68.35
2018-12-14T05:54:16.913Z,68.46
2018-12-14T05:54:48.031Z,68.29
2018-12-14T05:55:19.149Z,68.25
2018-12-14T05:55:50.276Z,68.16
2018-12-14T05:56:21.419Z,67.97
2018-12-14T05:56:52.566Z,68.21
2018-12-14T05:57:23.675Z,68.05
2018-12-14T05:57:54.787Z,68.49
2018-12-14T05:58:26.023Z,68.63
2018-12-14T05:58:57.247Z,68.70
2018-12-14T05:59:28.360Z,68.61
2018-12-14T05:59:59.489Z,68.26
2018-12-14T06:00:30.636Z,68.64
2018-12-14T06:01:01.741Z,68.50
2018-12-14T06:01:33.103Z,68.57
2018-12-14T06:02:04.224Z,68.79
2018-12-14T06:02:35.345Z,68.68
2018-12-14T06:03:06.464Z,68.50
2018-12-14T06:03:37.577Z,68.25
2018-12-14T06:04:08.692Z,68.36
2018-12-14T06:04:39.805Z,68.43
2018-12-14T06:05:10.948Z,68.47
2018-12-14T06:05:42.068Z,68.75
2018-12-14T06:06:13.209Z,68.38
2018-12-14T06:06:44.385Z,68.49
2018-12-14T06:07:15.506Z,68.63
2018-12-14T06:07:46.622Z,68.58
2018-12-14T06:08:17.754Z,68.87
2018-12-14T06:08:48.864Z,68.54
2018-12-14T06:09:19.984Z,68.57
2018-12-14T06:09:51.100Z,68.61
2018-12-14T06:10:22.216Z,68.64
2018-12-14T06:10:53.514Z,68.55
2018-12-14T06:11:24.694Z,68.52
2018-12-14T06:11:55.836Z,68.58
2018-12-14T06:12:26.954Z,68.80
2018-12-14T06:12:58.072Z,68.55
2018-12-14T06:13:29.190Z,68.38
2018-12-14T06:14:00.296Z,68.50
2018-12-14T06:14:31.410Z,68.52
2018-12-14T06:15:02.541Z,68.40
2018-12-14T06:15:33.666Z,68.42
2018-12-14T06:16:04.780Z,68.24
2018-12-14T06:16:35.943Z,68.47
2018-12-14T06:17:07.061Z,68.29
2018-12-14T06:17:38.173Z,68.31
2018-12-14T06:18:09.285Z,68.57
2018-12-14T06:18:40.432Z,68.37
2018-12-14T06:19:11.587Z,68.07
2018-12-14T06:19:42.706Z,68.02
2018-12-14T06:20:13.820Z,67.94
2018-12-14T06:20:44.922Z,68.01
2018-12-14T06:21:16.039Z,67.95
2018-12-14T06:21:47.154Z,68.02
2018-12-14T06:22:18.266Z,67.88
2018-12-14T06:22:49.379Z,68.11
2018-12-14T06:23:20.512Z,68.30
2018-12-14T06:23:51.636Z,67.97
2018-12-14T06:24:22.781Z,68.43
2018-12-14T06:24:53.902Z,68.01
2018-12-14T06:25:25.014Z,67.96
2018-12-14T06:25:56.128Z,67.82
2018-12-14T06:26:27.237Z,67.67
2018-12-14T06:26:58.352Z,67.62
2018-12-14T06:27:30.410Z,67.45
2018-12-14T06:28:01.529Z,67.67
2018-12-14T06:28:32.678Z,67.51
2018-12-14T06:29:03.786Z,67.63
2018-12-14T06:29:34.901Z,67.79
2018-12-14T06:30:06.009Z,67.74
2018-12-14T06:30:37.113Z,67.84
2018-12-14T06:31:08.269Z,67.49
2018-12-14T06:31:39.370Z,67.22
2018-12-14T06:32:10.471Z,67.50
2018-12-14T06:32:41.589Z,67.19
2018-12-14T06:33:12.713Z,67.94
2018-12-14T06:33:43.823Z,68.08
2018-12-14T06:34:14.972Z,68.17
2018-12-14T06:34:46.086Z,67.74
2018-12-14T06:35:17.207Z,68.54
2018-12-14T06:35:48.388Z,68.53
2018-12-14T06:36:19.563Z,67.99
2018-12-14T06:36:50.670Z,67.81
2018-12-14T06:37:21.788Z,68.08
2018-12-14T06:37:52.902Z,67.85
2018-12-14T06:38:24.017Z,67.62
2018-12-14T06:38:55.128Z,67.50
2018-12-14T06:39:26.268Z,67.38
2018-12-14T06:39:57.373Z,67.38
2018-12-14T06:40:28.480Z,67.60
2018-12-14T06:40:59.595Z,67.20
2018-12-14T06:41:30.714Z,67.36
2018-12-14T06:42:01.827Z,67.43